Time;durP1;ratioP1;P1;durP2;ratioP2;P2;SDS_P1;SDS_P2;PMS_P1;PMS_P2;Temp;Humidity;BMP_temperature;BMP_pressure;BME280_temperature;BME280_humidity;BME280_pressure;Samples;Min_cycle;Max_cycle;Signal;HPM_P1;HPM_P2
2022/04/15 00:03:34;;;;;;;26.63;14.48;;;13.10;78.00;;;;;;10360031;28;20041;-80
2022/04/15 00:08:36;;;;;;;26.42;14.23;;;13.00;79.10;;;;;;10361474;28;20109;-79
2022/04/15 00:13:37;;;;;;;28.15;14.52;;;12.80;79.00;;;;;;10353285;28;20386;-80
2022/04/15 00:18:38;;;;;;;25.35;13.35;;;12.70;80.10;;;;;;10370844;28;20057;-80
2022/04/15 00:23:38;;;;;;;25.45;14.35;;;12.50;80.80;;;;;;10371301;28;20026;-80
2022/04/15 00:28:39;;;;;;;25.90;14.48;;;12.40;81.10;;;;;;10346339;28;20042;-80
2022/04/15 00:33:40;;;;;;;27.65;14.30;;;12.40;82.80;;;;;;10359682;28;20712;-80
2022/04/15 00:38:41;;;;;;;26.30;14.05;;;12.30;82.80;;;;;;10370535;28;20505;-80
2022/04/15 00:43:41;;;;;;;27.15;13.13;;;12.30;82.90;;;;;;10352924;28;20037;-79
2022/04/15 00:48:42;;;;;;;27.98;15.60;;;12.20;84.40;;;;;;10369213;28;20029;-80
2022/04/15 00:53:45;;;;;;;27.05;15.73;;;12.00;84.90;;;;;;10370058;28;20036;-80
2022/04/15 00:58:48;;;;;;;31.38;16.90;;;11.90;85.90;;;;;;10370063;28;20129;-80
2022/04/15 01:03:50;;;;;;;28.45;16.05;;;11.90;85.70;;;;;;10362053;28;20172;-80
2022/04/15 01:08:55;;;;;;;28.50;14.77;;;12.00;86.40;;;;;;10350722;28;20034;-80
2022/04/15 01:13:59;;;;;;;28.87;16.43;;;12.10;86.30;;;;;;10356620;28;20085;-80
2022/04/15 01:19:00;;;;;;;33.58;16.70;;;12.00;87.30;;;;;;10369392;28;20038;-80
2022/04/15 01:24:00;;;;;;;39.25;21.27;;;12.00;88.60;;;;;;10369333;28;20034;-80
2022/04/15 01:29:02;;;;;;;36.22;21.55;;;12.00;88.90;;;;;;10369512;28;20489;-80
2022/04/15 01:34:03;;;;;;;36.58;21.27;;;12.00;90.00;;;;;;10367773;28;20044;-79
2022/04/15 01:39:03;;;;;;;38.40;21.15;;;12.00;90.30;;;;;;10367527;28;20041;-79
2022/04/15 01:44:08;;;;;;;40.08;21.52;;;12.00;90.80;;;;;;10349476;28;20115;-80
2022/04/15 01:49:08;;;;;;;36.20;20.83;;;12.00;91.00;;;;;;10367014;28;20033;-79
2022/04/15 01:54:09;;;;;;;37.05;21.33;;;11.90;91.50;;;;;;10344069;28;20504;-80
2022/04/15 01:59:10;;;;;;;37.95;21.23;;;11.90;91.80;;;;;;10368143;28;20059;-80
2022/04/15 02:04:10;;;;;;;39.67;21.88;;;11.90;92.00;;;;;;10366182;28;20095;-80
2022/04/15 02:09:11;;;;;;;41.03;23.83;;;11.90;92.40;;;;;;10365389;28;20022;-80
2022/04/15 02:14:16;;;;;;;34.47;20.38;;;12.00;93.00;;;;;;10368018;28;20045;-80
2022/04/15 02:19:17;;;;;;;37.05;22.38;;;12.00;93.50;;;;;;10366888;28;20041;-80
2022/04/15 02:24:18;;;;;;;36.85;21.65;;;12.00;94.70;;;;;;10338944;28;20077;-80
2022/04/15 02:29:18;;;;;;;34.38;21.80;;;12.10;95.40;;;;;;10327314;28;20014;-80
2022/04/15 02:34:19;;;;;;;36.15;20.35;;;12.00;96.50;;;;;;10357988;28;20029;-80
2022/04/15 02:39:19;;;;;;;32.65;20.88;;;12.10;97.20;;;;;;10366578;28;20041;-80
2022/04/15 02:44:20;;;;;;;34.08;20.08;;;12.10;98.30;;;;;;10367264;28;20468;-80
2022/04/15 02:49:21;;;;;;;32.20;19.15;;;12.10;99.40;;;;;;10359872;28;20041;-80
2022/04/15 02:54:22;;;;;;;28.85;17.17;;;12.10;99.90;;;;;;10349325;28;20034;-80
2022/04/15 02:59:23;;;;;;;28.02;16.75;;;12.00;99.90;;;;;;10374234;28;20034;-80
2022/04/15 03:04:23;;;;;;;26.17;15.95;;;12.00;99.90;;;;;;10368586;28;20022;-80
2022/04/15 03:09:27;;;;;;;26.48;16.52;;;12.00;99.90;;;;;;10375304;28;20018;-79
2022/04/15 03:14:28;;;;;;;24.27;15.88;;;11.90;99.90;;;;;;10373751;28;20058;-80
2022/04/15 03:19:28;;;;;;;20.40;13.50;;;11.90;99.90;;;;;;10373567;28;20046;-80
2022/04/15 03:24:29;;;;;;;23.25;14.02;;;11.90;99.90;;;;;;10373096;28;20551;-79
2022/04/15 03:29:29;;;;;;;21.42;12.48;;;11.90;99.90;;;;;;10372407;28;20539;-79
2022/04/15 03:34:30;;;;;;;23.05;14.10;;;11.80;99.90;;;;;;10371583;28;20354;-80
2022/04/15 03:39:31;;;;;;;21.05;12.00;;;11.80;99.90;;;;;;10372564;28;20401;-80
2022/04/15 03:44:31;;;;;;;21.83;13.68;;;11.60;99.90;;;;;;10366415;28;20027;-79
2022/04/15 03:49:33;;;;;;;20.63;12.20;;;11.50;99.90;;;;;;10368420;28;20494;-79
2022/04/15 03:54:33;;;;;;;18.60;12.23;;;11.40;99.90;;;;;;10372160;28;20026;-80
2022/04/15 03:59:34;;;;;;;22.58;12.98;;;11.20;99.90;;;;;;10388761;28;20182;-79
2022/04/15 04:04:34;;;;;;;26.40;15.67;;;11.00;99.90;;;;;;10394927;28;20023;-81
2022/04/15 04:09:35;;;;;;;34.90;19.73;;;10.90;99.90;;;;;;10399706;28;20029;-82
2022/04/15 04:14:35;;;;;;;48.70;25.23;;;10.50;99.90;;;;;;10371000;28;20058;-81
2022/04/15 04:19:36;;;;;;;43.43;24.07;;;10.40;99.90;;;;;;10362485;28;20034;-81
2022/04/15 04:24:37;;;;;;;45.97;26.03;;;10.40;99.90;;;;;;10356863;28;20038;-81
2022/04/15 04:29:37;;;;;;;63.83;30.70;;;10.40;99.90;;;;;;10336669;28;20057;-82
2022/04/15 04:34:39;;;;;;;70.27;31.80;;;10.40;99.90;;;;;;10371666;28;20030;-82
2022/04/15 04:39:39;;;;;;;82.53;36.20;;;10.50;99.90;;;;;;10371218;28;20038;-81
2022/04/15 04:44:41;;;;;;;97.33;37.00;;;10.50;99.90;;;;;;10343509;28;20030;-82
2022/04/15 04:49:41;;;;;;;117.83;43.87;;;10.50;99.90;;;;;;10339426;28;20037;-83
2022/04/15 04:54:42;;;;;;;161.90;60.47;;;10.60;99.90;;;;;;10331447;28;20377;-83
2022/04/15 04:59:43;;;;;;;148.57;51.90;;;10.50;99.90;;;;;;10329743;28;20482;-82
2022/04/15 05:04:43;;;;;;;95.78;44.92;;;10.50;99.90;;;;;;10341450;28;20085;-81
2022/04/15 05:09:44;;;;;;;126.23;62.63;;;10.50;99.90;;;;;;10331558;28;20061;-84
2022/04/15 05:14:45;;;;;;;113.63;52.57;;;10.60;99.90;;;;;;10328446;28;20105;-82
2022/04/15 05:19:45;;;;;;;103.13;48.23;;;10.50;99.90;;;;;;10328958;28;20136;-82
2022/04/15 05:24:46;;;;;;;120.97;56.40;;;10.60;99.90;;;;;;10330261;28;20434;-82
2022/04/15 05:29:47;;;;;;;101.30;48.42;;;10.60;99.90;;;;;;10328550;28;20423;-82
2022/04/15 05:34:47;;;;;;;96.20;46.80;;;10.70;99.90;;;;;;10350710;28;20045;-82
2022/04/15 05:39:48;;;;;;;93.40;49.30;;;10.70;99.90;;;;;;10368517;28;20088;-82
2022/04/15 05:44:48;;;;;;;136.85;81.05;;;10.70;99.90;;;;;;10369183;28;20496;-82
2022/04/15 05:49:49;;;;;;;134.80;78.78;;;10.70;99.90;;;;;;10368776;28;20030;-81
2022/04/15 05:54:49;;;;;;;95.25;47.20;;;10.70;99.90;;;;;;10368770;28;20034;-81
2022/04/15 05:59:50;;;;;;;121.97;66.15;;;10.80;99.90;;;;;;10366886;28;20044;-81
2022/04/15 06:04:51;;;;;;;124.00;63.20;;;10.80;99.90;;;;;;10367778;28;20492;-80
2022/04/15 06:09:51;;;;;;;100.77;51.70;;;10.80;99.90;;;;;;10368470;28;20057;-85
2022/04/15 06:14:53;;;;;;;117.22;61.10;;;10.90;99.90;;;;;;10352274;28;20060;-80
2022/04/15 06:19:53;;;;;;;125.60;73.07;;;10.90;99.90;;;;;;10327023;28;20121;-82
2022/04/15 06:24:54;;;;;;;91.18;45.67;;;11.00;99.90;;;;;;10359974;28;20040;-80
2022/04/15 06:29:54;;;;;;;97.00;48.28;;;11.20;99.90;;;;;;10366998;28;20504;-80
2022/04/15 06:34:55;;;;;;;82.32;40.53;;;11.20;99.90;;;;;;10364902;28;20601;-80
2022/04/15 06:39:56;;;;;;;69.22;35.42;;;11.20;99.90;;;;;;10330731;28;20514;-81
2022/04/15 06:44:57;;;;;;;89.32;45.15;;;11.20;99.90;;;;;;10326346;28;20037;-81
2022/04/15 06:49:58;;;;;;;85.90;41.05;;;11.20;99.90;;;;;;10326884;28;20513;-80
2022/04/15 06:54:59;;;;;;;77.90;40.28;;;11.20;99.90;;;;;;10343685;28;20030;-80
2022/04/15 06:59:59;;;;;;;97.35;46.65;;;11.20;99.90;;;;;;10367312;28;20037;-80
2022/04/15 07:05:00;;;;;;;108.63;48.28;;;11.20;99.90;;;;;;10364241;28;20025;-81
2022/04/15 07:10:00;;;;;;;110.43;49.92;;;11.10;99.90;;;;;;10354578;28;20445;-80
2022/04/15 07:15:01;;;;;;;92.45;45.38;;;11.10;99.90;;;;;;10363834;28;20062;-81
2022/04/15 07:20:02;;;;;;;125.07;56.67;;;11.10;99.90;;;;;;10369491;28;20041;-81
2022/04/15 07:25:03;;;;;;;131.60;60.63;;;11.10;99.90;;;;;;10356254;28;20023;-81
2022/04/15 07:30:05;;;;;;;160.77;76.15;;;11.10;99.90;;;;;;10380471;23;20057;-81
2022/04/15 07:35:07;;;;;;;118.03;52.08;;;11.10;99.90;;;;;;10363646;28;20048;-80
2022/04/15 07:40:08;;;;;;;124.80;51.47;;;11.10;99.90;;;;;;10399667;28;20550;-80
2022/04/15 07:45:09;;;;;;;124.95;51.63;;;11.10;99.90;;;;;;10409391;28;20465;-82
2022/04/15 07:50:10;;;;;;;104.32;44.97;;;11.10;99.90;;;;;;10390287;28;20025;-80
2022/04/15 07:55:10;;;;;;;167.68;81.50;;;11.20;99.90;;;;;;10389762;28;20088;-81
2022/04/15 08:00:12;;;;;;;223.00;102.20;;;11.30;99.90;;;;;;10375652;28;20088;-80
2022/04/15 08:05:13;;;;;;;45.92;21.60;;;11.30;99.90;;;;;;10388240;28;20046;-81
2022/04/15 08:10:13;;;;;;;54.17;26.08;;;11.50;99.90;;;;;;10396334;28;20030;-80
2022/04/15 08:15:14;;;;;;;102.80;50.30;;;11.50;99.90;;;;;;10397385;28;20059;-82
2022/04/15 08:20:15;;;;;;;107.90;54.35;;;11.50;99.90;;;;;;10395035;28;20052;-82
2022/04/15 08:25:15;;;;;;;47.00;23.33;;;11.40;99.90;;;;;;10389956;28;20065;-80
2022/04/15 08:30:16;;;;;;;39.20;18.63;;;11.40;99.90;;;;;;10402284;28;20385;-80
2022/04/15 08:35:17;;;;;;;28.05;14.73;;;11.30;99.90;;;;;;10395974;28;20032;-81
2022/04/15 08:40:17;;;;;;;32.67;15.48;;;11.30;99.90;;;;;;10388836;28;20069;-79
2022/04/15 08:45:21;;;;;;;23.13;13.25;;;11.50;99.90;;;;;;10376511;28;20114;-79
2022/04/15 08:50:22;;;;;;;25.25;14.15;;;11.80;99.90;;;;;;10379608;28;20021;-80
2022/04/15 08:55:24;;;;;;;17.90;10.80;;;12.10;99.90;;;;;;10381374;28;20698;-79
2022/04/15 09:00:27;;;;;;;15.32;9.00;;;12.20;99.90;;;;;;10367893;28;20390;-78
2022/04/15 09:05:28;;;;;;;10.35;6.20;;;12.30;99.90;;;;;;10372111;28;20472;-79
2022/04/15 09:10:29;;;;;;;9.52;5.47;;;12.50;99.90;;;;;;10373524;28;20104;-79
2022/04/15 09:15:31;;;;;;;8.63;4.70;;;12.60;99.90;;;;;;10369403;28;20079;-80
2022/04/15 09:20:33;;;;;;;9.02;4.93;;;12.30;99.90;;;;;;10371751;28;20037;-79
2022/04/15 09:25:34;;;;;;;12.15;5.05;;;12.10;99.90;;;;;;10388438;28;20105;-80
2022/04/15 09:30:37;;;;;;;10.63;6.03;;;12.00;99.90;;;;;;10386022;28;20506;-79
2022/04/15 09:35:43;;;;;;;7.93;4.65;;;12.10;99.90;;;;;;10374425;28;20032;-80
2022/04/15 09:40:44;;;;;;;12.00;7.05;;;12.30;99.90;;;;;;10381742;28;20030;-80
2022/04/15 09:45:45;;;;;;;13.60;7.15;;;12.90;99.90;;;;;;10383847;28;20021;-80
2022/04/15 09:50:46;;;;;;;5.72;3.97;;;13.60;99.90;;;;;;10373348;28;20088;-81
2022/04/15 09:55:50;;;;;;;6.10;4.15;;;14.30;99.90;;;;;;10373490;28;20028;-80
2022/04/15 10:00:54;;;;;;;12.23;6.70;;;14.60;99.90;;;;;;10390409;28;20128;-80
2022/04/15 10:05:56;;;;;;;10.95;6.50;;;14.60;99.90;;;;;;10385181;28;20050;-80
2022/04/15 10:10:57;;;;;;;5.63;3.95;;;14.90;99.90;;;;;;10384851;28;20030;-79
2022/04/15 10:15:58;;;;;;;12.55;6.95;;;15.40;99.90;;;;;;10378590;28;20552;-80
2022/04/15 10:21:03;;;;;;;19.02;9.30;;;14.80;99.90;;;;;;10390427;28;20014;-80
2022/04/15 10:26:06;;;;;;;19.92;10.23;;;14.50;99.90;;;;;;10379718;28;20022;-79
2022/04/15 10:31:16;;;;;;;27.10;13.13;;;14.30;99.90;;;;;;10384787;28;20033;-80
2022/04/15 10:36:21;;;;;;;9.55;6.45;;;14.30;99.90;;;;;;10387719;28;20034;-81
2022/04/15 10:41:22;;;;;;;18.00;11.00;;;14.50;99.90;;;;;;10381829;28;20053;-81
2022/04/15 10:46:31;;;;;;;7.10;5.20;;;14.60;99.90;;;;;;10375294;28;20109;-80
2022/04/15 10:51:34;;;;;;;9.95;6.93;;;14.50;99.90;;;;;;10387561;28;20022;-80
2022/04/15 10:56:57;;;;;;;10.13;6.78;;;14.50;99.90;;;;;;10377966;28;20100;-81
2022/04/15 11:02:04;;;;;;;21.65;13.15;;;14.80;99.90;;;;;;10368346;28;20045;-79
2022/04/15 11:07:25;;;;;;;21.15;12.18;;;15.00;99.90;;;;;;10366720;28;20173;-81
2022/04/15 11:12:45;;;;;;;20.48;13.52;;;15.00;99.90;;;;;;10384110;28;20038;-80
2022/04/15 11:17:47;;;;;;;20.92;12.52;;;15.00;99.90;;;;;;10395435;28;20156;-79
2022/04/15 11:22:49;;;;;;;18.98;10.52;;;15.50;99.90;;;;;;10383530;28;20382;-80
2022/04/15 11:27:52;;;;;;;18.98;11.70;;;16.20;99.90;;;;;;10393609;28;20155;-82
2022/04/15 11:32:54;;;;;;;14.75;9.55;;;16.10;99.90;;;;;;10391923;28;20034;-80
2022/04/15 11:38:07;;;;;;;9.93;6.90;;;16.10;99.90;;;;;;10391100;28;20033;-80
2022/04/15 11:43:08;;;;;;;10.82;7.93;;;16.00;99.90;;;;;;10389256;28;20667;-80
2022/04/15 11:48:24;;;;;;;13.13;9.95;;;15.90;99.90;;;;;;10393059;28;20813;-80
2022/04/15 11:53:24;;;;;;;17.67;12.23;;;15.70;99.90;;;;;;10384943;28;20037;-81
2022/04/15 11:58:34;;;;;;;14.60;9.27;;;15.80;99.90;;;;;;10387971;28;21281;-80
2022/04/15 12:03:41;;;;;;;10.45;6.75;;;16.00;99.90;;;;;;10374689;28;20034;-82
2022/04/15 12:08:42;;;;;;;6.03;4.20;;;16.70;99.90;;;;;;10375520;28;20030;-82
2022/04/15 12:13:43;;;;;;;6.28;4.20;;;16.70;99.90;;;;;;10392622;28;20026;-80
2022/04/15 12:18:44;;;;;;;6.15;4.30;;;15.50;99.90;;;;;;10391995;28;20096;-80
2022/04/15 12:24:03;;;;;;;5.97;3.70;;;14.80;99.90;;;;;;10385122;28;20061;-82
2022/04/15 12:34:33;;;;;;;4.38;3.47;;;13.60;99.90;;;;;;10392232;28;20041;-80
2022/04/15 12:39:50;;;;;;;5.35;3.72;;;13.30;99.90;;;;;;10403479;28;20453;-81
2022/04/15 12:44:54;;;;;;;5.80;4.43;;;13.10;99.90;;;;;;10396450;28;20108;-80
2022/04/15 12:50:19;;;;;;;8.60;5.55;;;13.20;99.90;;;;;;10388211;28;20029;-79
2022/04/15 12:55:31;;;;;;;6.82;4.93;;;13.30;99.90;;;;;;10386093;28;20045;-79
2022/04/15 13:00:32;;;;;;;8.40;6.20;;;13.40;99.90;;;;;;10394290;28;20038;-81
2022/04/15 13:05:33;;;;;;;7.22;4.90;;;13.70;99.90;;;;;;10380108;28;20044;-79
2022/04/15 13:10:34;;;;;;;6.93;5.10;;;13.90;99.90;;;;;;10390471;28;20029;-79
2022/04/15 13:15:35;;;;;;;7.15;5.05;;;14.30;99.90;;;;;;10377466;28;20030;-82
2022/04/15 13:20:36;;;;;;;4.75;3.20;;;14.70;99.90;;;;;;10379455;28;20018;-80
2022/04/15 13:25:37;;;;;;;5.18;3.15;;;14.50;99.90;;;;;;10379782;28;20033;-79
2022/04/15 13:30:37;;;;;;;7.30;3.60;;;13.40;99.90;;;;;;10383000;28;20054;-80
2022/04/15 13:35:40;;;;;;;8.50;3.83;;;12.60;99.90;;;;;;10387660;28;20036;-79
2022/04/15 13:40:43;;;;;;;8.23;4.55;;;12.00;99.90;;;;;;10395393;28;20532;-81
2022/04/15 13:45:44;;;;;;;9.15;5.53;;;11.60;99.90;;;;;;10385066;28;20487;-81
2022/04/15 13:50:45;;;;;;;13.93;7.32;;;11.30;99.90;;;;;;10389058;28;20108;-79
2022/04/15 14:01:05;;;;;;;13.50;7.55;;;11.20;99.90;;;;;;10383118;28;20570;-82
2022/04/15 14:06:05;;;;;;;11.68;6.65;;;11.20;99.90;;;;;;10394423;28;20037;-78
2022/04/15 14:11:07;;;;;;;13.65;7.22;;;11.20;99.90;;;;;;10397572;28;20420;-79
2022/04/15 14:16:08;;;;;;;8.10;4.53;;;11.30;99.90;;;;;;10365068;28;20061;-80
2022/04/15 14:21:12;;;;;;;8.23;4.35;;;11.40;99.90;;;;;;10365054;28;20617;-79
2022/04/15 14:26:13;;;;;;;7.72;4.60;;;11.40;99.90;;;;;;10365890;28;20113;-79
2022/04/15 14:31:14;;;;;;;6.15;3.90;;;11.40;99.90;;;;;;10366105;28;20110;-79
2022/04/15 14:36:15;;;;;;;7.20;4.13;;;11.60;99.90;;;;;;10366755;28;20037;-79
2022/04/15 14:41:16;;;;;;;6.57;3.88;;;11.80;99.90;;;;;;10367352;28;20045;-79
2022/04/15 14:46:17;;;;;;;6.85;4.07;;;12.00;99.90;;;;;;10367523;28;20458;-79
2022/04/15 14:51:18;;;;;;;7.43;4.18;;;12.10;99.90;;;;;;10374585;28;20088;-79
2022/04/15 14:56:19;;;;;;;7.65;4.30;;;12.20;99.90;;;;;;10375542;28;20425;-79
2022/04/15 15:01:20;;;;;;;6.20;4.15;;;12.20;99.90;;;;;;10375160;28;20470;-78
2022/04/15 15:06:20;;;;;;;10.60;4.78;;;12.30;99.90;;;;;;10374645;28;20026;-78
2022/04/15 15:11:22;;;;;;;8.52;5.40;;;12.20;99.90;;;;;;10374939;28;20038;-79
2022/04/15 15:16:23;;;;;;;9.68;5.80;;;12.10;99.90;;;;;;10377054;28;20131;-79
2022/04/15 15:21:24;;;;;;;10.57;5.70;;;11.90;99.90;;;;;;10382471;28;20038;-79
2022/04/15 15:31:44;;;;;;;12.98;6.70;;;11.90;99.90;;;;;;10378779;28;20116;-78
2022/04/15 15:36:45;;;;;;;12.30;7.00;;;11.90;99.90;;;;;;10400537;28;20037;-79
2022/04/15 15:41:45;;;;;;;14.05;8.07;;;11.90;99.90;;;;;;10437087;28;20112;-79
2022/04/15 15:46:46;;;;;;;19.33;9.68;;;12.00;99.90;;;;;;10422996;28;20025;-80
2022/04/15 15:51:46;;;;;;;16.83;10.38;;;12.00;99.90;;;;;;10392101;28;20036;-78
2022/04/15 15:56:47;;;;;;;13.63;8.63;;;12.00;99.90;;;;;;10393980;28;20418;-78
2022/04/15 16:01:49;;;;;;;14.85;7.88;;;11.90;99.90;;;;;;10371327;28;20055;-78
2022/04/15 16:06:50;;;;;;;24.40;12.50;;;11.80;99.90;;;;;;10383017;28;20052;-78
2022/04/15 16:11:51;;;;;;;13.55;7.28;;;11.70;99.90;;;;;;10372487;28;20030;-78
2022/04/15 16:16:52;;;;;;;16.10;8.18;;;11.70;99.90;;;;;;10374531;28;20484;-79
2022/04/15 16:21:52;;;;;;;15.48;8.90;;;11.50;99.90;;;;;;10371742;28;20038;-79
2022/04/15 16:26:53;;;;;;;14.98;9.77;;;11.40;99.90;;;;;;10387952;28;20611;-78
2022/04/15 16:31:54;;;;;;;19.40;11.65;;;11.30;99.90;;;;;;10396758;28;20069;-79
2022/04/15 16:36:55;;;;;;;21.15;14.07;;;11.30;99.90;;;;;;10371527;28;20030;-78
2022/04/15 16:41:56;;;;;;;21.70;13.35;;;11.20;99.90;;;;;;10396228;28;20466;-79
2022/04/15 16:46:59;;;;;;;24.15;13.52;;;11.10;99.90;;;;;;10406363;28;20029;-78
2022/04/15 16:52:00;;;;;;;19.95;12.48;;;11.00;99.90;;;;;;10411594;28;20033;-78
2022/04/15 17:02:21;;;;;;;24.65;14.60;;;10.90;99.90;;;;;;10387682;28;20494;-79
2022/04/15 17:07:21;;;;;;;26.45;15.80;;;10.80;99.90;;;;;;10373809;28;20034;-79
2022/04/15 17:12:22;;;;;;;28.77;15.60;;;10.80;99.90;;;;;;10376992;28;20033;-79
2022/04/15 17:17:23;;;;;;;27.30;15.10;;;10.70;99.90;;;;;;10375958;28;20033;-78
2022/04/15 17:22:26;;;;;;;27.60;14.98;;;10.70;99.90;;;;;;10387242;28;20037;-79
2022/04/15 17:27:27;;;;;;;23.80;15.02;;;10.60;99.90;;;;;;10384960;28;20049;-78
2022/04/15 17:32:27;;;;;;;23.60;14.70;;;10.40;99.90;;;;;;10381007;28;20052;-78
2022/04/15 17:37:28;;;;;;;24.47;15.17;;;10.40;99.90;;;;;;10386312;28;20041;-78
2022/04/15 17:42:29;;;;;;;23.67;15.23;;;10.30;99.90;;;;;;10384386;28;20488;-78
2022/04/15 17:47:29;;;;;;;24.08;14.93;;;10.20;99.90;;;;;;10379053;28;20558;-79
2022/04/15 17:52:30;;;;;;;27.23;15.97;;;10.10;99.90;;;;;;10376761;28;20017;-78
2022/04/15 17:57:33;;;;;;;29.17;16.60;;;10.10;99.90;;;;;;10387343;28;20415;-78
2022/04/15 18:02:34;;;;;;;32.50;16.50;;;10.00;99.90;;;;;;10385896;28;20033;-78
2022/04/15 18:07:35;;;;;;;26.20;16.10;;;10.00;99.90;;;;;;10385424;28;20037;-78
2022/04/15 18:12:37;;;;;;;26.60;16.93;;;10.00;99.90;;;;;;10379522;28;20030;-78
2022/04/15 18:17:37;;;;;;;26.33;15.37;;;9.90;99.90;;;;;;10380645;28;20041;-78
2022/04/15 18:22:38;;;;;;;26.67;15.77;;;10.00;99.90;;;;;;10380820;28;20034;-78
2022/04/15 18:27:38;;;;;;;30.40;17.03;;;9.90;99.90;;;;;;10390709;28;20469;-78
2022/04/15 18:32:39;;;;;;;30.53;17.33;;;9.90;99.90;;;;;;10395837;28;20358;-78
2022/04/15 18:37:40;;;;;;;29.33;16.83;;;9.90;99.90;;;;;;10378540;28;20041;-78
2022/04/15 18:42:42;;;;;;;24.67;15.37;;;9.90;99.90;;;;;;10375601;28;20030;-78
2022/04/15 18:47:42;;;;;;;27.83;16.60;;;9.80;99.90;;;;;;10375796;28;20504;-79
2022/04/15 18:52:43;;;;;;;28.00;16.60;;;9.70;99.90;;;;;;10366682;28;20036;-79
2022/04/15 18:57:44;;;;;;;25.17;15.30;;;9.70;99.90;;;;;;10381938;28;20121;-78
2022/04/15 19:02:45;;;;;;;23.47;15.20;;;9.70;99.90;;;;;;10380559;28;20022;-78
2022/04/15 19:07:45;;;;;;;25.63;15.20;;;9.70;99.90;;;;;;10384199;28;20109;-77
2022/04/15 19:12:46;;;;;;;23.50;15.47;;;9.60;99.90;;;;;;10378425;28;20105;-77
2022/04/15 19:17:47;;;;;;;27.63;14.10;;;9.60;99.90;;;;;;10382107;28;20038;-78
2022/04/15 19:22:47;;;;;;;21.27;13.33;;;9.50;99.90;;;;;;10388390;28;20495;-78
2022/04/15 19:27:48;;;;;;;18.40;12.57;;;9.40;99.90;;;;;;10397743;28;20046;-79
2022/04/15 19:32:48;;;;;;;22.37;13.93;;;9.30;99.90;;;;;;10397582;28;20030;-77
2022/04/15 19:37:49;;;;;;;22.87;13.83;;;9.20;99.90;;;;;;10384909;28;20676;-77
2022/04/15 19:42:50;;;;;;;22.53;13.63;;;9.10;99.90;;;;;;10390239;28;20021;-77
2022/04/15 19:47:52;;;;;;;20.13;11.50;;;9.10;99.90;;;;;;10384097;28;20029;-78
2022/04/15 19:52:53;;;;;;;20.63;12.87;;;8.90;99.90;;;;;;10389965;28;20030;-78
2022/04/15 20:03:13;;;;;;;19.33;10.67;;;8.70;99.90;;;;;;10333151;28;20034;-77
2022/04/15 20:08:15;;;;;;;20.67;11.47;;;8.60;99.90;;;;;;10321472;28;20030;-78
2022/04/15 20:13:16;;;;;;;17.13;10.57;;;8.50;99.90;;;;;;10329454;28;20073;-78
2022/04/15 20:18:17;;;;;;;20.33;10.17;;;8.40;99.90;;;;;;10331836;28;20126;-79
2022/04/15 20:23:18;;;;;;;18.37;10.33;;;8.30;99.90;;;;;;10330175;28;20041;-79
2022/04/15 20:28:21;;;;;;;15.23;9.13;;;8.20;99.90;;;;;;10322840;28;20383;-79
2022/04/15 20:33:22;;;;;;;14.30;9.90;;;8.10;99.90;;;;;;10332149;28;20026;-79
2022/04/15 20:38:23;;;;;;;16.47;9.90;;;8.00;99.90;;;;;;10343775;28;20492;-80
2022/04/15 20:43:24;;;;;;;16.17;9.20;;;7.90;99.90;;;;;;10368283;28;20030;-78
2022/04/15 20:53:44;;;;;;;17.33;10.37;;;7.80;99.90;;;;;;10356007;28;20105;-78
2022/04/15 20:58:45;;;;;;;16.33;9.97;;;7.80;99.90;;;;;;10369599;28;20053;-80
2022/04/15 21:03:46;;;;;;;19.73;11.47;;;7.80;99.90;;;;;;10378129;28;20030;-81
2022/04/15 21:08:47;;;;;;;24.07;12.63;;;7.80;99.90;;;;;;10368773;28;20108;-79
2022/04/15 21:13:48;;;;;;;25.67;13.03;;;7.80;99.90;;;;;;10367832;28;20026;-79
2022/04/15 21:18:48;;;;;;;25.27;13.73;;;7.70;99.90;;;;;;10347882;28;20080;-79
2022/04/15 21:23:49;;;;;;;23.37;13.30;;;7.70;99.90;;;;;;10356551;28;20030;-79
2022/04/15 21:28:50;;;;;;;24.53;14.40;;;7.60;99.90;;;;;;10356085;28;20045;-81
2022/04/15 21:33:50;;;;;;;21.70;13.23;;;7.60;99.90;;;;;;10361595;28;20036;-81
2022/04/15 21:38:51;;;;;;;24.77;14.30;;;7.60;99.90;;;;;;10367420;28;20037;-79
2022/04/15 21:43:53;;;;;;;27.43;14.73;;;7.50;99.90;;;;;;10364599;28;20486;-78
2022/04/15 21:48:55;;;;;;;27.70;16.67;;;7.60;99.90;;;;;;10362610;28;20036;-78
2022/04/15 21:53:56;;;;;;;25.63;15.37;;;7.70;99.90;;;;;;10353446;28;20024;-79
2022/04/15 21:58:57;;;;;;;25.07;14.50;;;7.80;99.90;;;;;;10366475;28;20052;-79
2022/04/15 22:04:00;;;;;;;23.93;14.33;;;7.80;99.90;;;;;;10365870;28;20025;-80
2022/04/15 22:09:02;;;;;;;22.83;15.27;;;7.80;99.90;;;;;;10365382;28;20482;-80
2022/04/15 22:14:03;;;;;;;24.97;13.83;;;7.90;99.90;;;;;;10360045;28;20489;-79
2022/04/15 22:19:05;;;;;;;24.97;14.97;;;8.00;99.90;;;;;;10360959;28;20038;-80
2022/04/15 22:24:06;;;;;;;26.03;14.97;;;8.00;99.90;;;;;;10360900;28;20061;-78
2022/04/15 22:29:07;;;;;;;22.57;13.07;;;8.00;99.90;;;;;;10376360;28;20379;-81
2022/04/15 22:34:11;;;;;;;25.20;15.30;;;8.00;99.90;;;;;;10365997;28;20091;-80
2022/04/15 22:39:12;;;;;;;24.73;14.37;;;8.00;99.90;;;;;;10347018;28;20121;-79
2022/04/15 22:44:13;;;;;;;25.30;14.63;;;8.00;99.90;;;;;;10366404;28;20478;-79
2022/04/15 22:49:14;;;;;;;24.03;13.93;;;8.00;99.90;;;;;;10370153;28;20026;-82
2022/04/15 22:57:07;;;;;;;21.73;13.20;;;8.00;99.90;;;;;;10352138;28;20034;-79
2022/04/15 22:59:36;;;;;;;24.77;13.97;;;8.00;99.90;;;;;;10362639;28;20062;-80
2022/04/15 23:04:38;;;;;;;20.77;12.13;;;8.10;99.90;;;;;;10365642;28;20026;-81
2022/04/15 23:09:39;;;;;;;21.53;12.77;;;8.10;99.90;;;;;;10369079;28;20025;-80
2022/04/15 23:14:39;;;;;;;16.83;10.93;;;8.20;99.90;;;;;;10372196;28;20494;-79
2022/04/15 23:19:40;;;;;;;17.43;10.53;;;8.20;99.90;;;;;;10375783;28;20038;-80
2022/04/15 23:24:41;;;;;;;18.03;11.33;;;8.20;99.90;;;;;;10367664;28;20109;-80
2022/04/15 23:29:42;;;;;;;16.67;11.03;;;8.20;99.90;;;;;;10362927;28;20038;-81
2022/04/15 23:34:42;;;;;;;18.27;10.80;;;8.20;99.90;;;;;;10365418;28;20439;-79
2022/04/15 23:39:43;;;;;;;12.73;8.37;;;8.20;99.90;;;;;;10362062;28;20033;-81
2022/04/15 23:44:44;;;;;;;12.97;8.97;;;8.00;99.90;;;;;;10359609;28;20507;-79
2022/04/15 23:49:45;;;;;;;14.67;9.37;;;7.70;99.90;;;;;;10361075;28;20045;-81
2022/04/15 23:54:46;;;;;;;14.20;9.47;;;7.40;99.90;;;;;;10353804;28;20461;-79
2022/04/15 23:59:46;;;;;;;15.30;10.30;;;7.20;99.90;;;;;;10353834;28;20133;-79
